Impacts METAR Board
IDs:

KDEN - Denver Intl, CO, US

Updated at: 0200 UTC 23 Sep 2018
Potential Impact None Slight Moderate High
Time 22/14Z 22/15Z 22/16Z 22/17Z 22/18Z 22/19Z 22/20Z 22/21Z 22/22Z 22/23Z 23/00Z 23/01Z 23/02Z
Temp57 65 71 77 81 83 84 85 85 85 83 74 66
Dewpt43 41 40 28 20 12 11 11 10 11 13 19 22
Altim30.21 30.21 30.22 30.21 30.20 30.17 30.14 30.11 30.09 30.08 30.07 30.08 30.08
VIS10 10 10 10 10 10 10 10 10 10 10 10 10
CIG-- -- -- -- -- -- -- -- -- -- -- -- --
CoverFEWFEWFEWFEWFEWFEWFEWFEWFEWCLRFEWFEWFEW
FltCatVFRVFRVFRVFRVFRVFRVFRVFRVFRVFRVFRVFRVFR
WX--------------------------
WDir024023022033001309010080100110140
WSpd0 9 9 5 3 3 8 4 8 9 10 9 8
WGst-- -- -- -- -- -- -- -- -- -- -- -- --
Raw hourly METARs
KDEN 221353Z 00000KT 10SM FEW200 14/06 A3021 RMK AO2 SLP174 T01390061
KDEN 221453Z 24009KT 10SM FEW200 18/05 A3021 RMK AO2 SLP166 T01830050 52004
KDEN 221553Z 23009KT 10SM FEW200 22/04 A3022 RMK AO2 SLP161 T02170044
KDEN 221653Z 22005KT 10SM FEW200 25/M02 A3021 RMK AO2 SLP156 T02501022
KDEN 221753Z 33003KT 10SM FEW200 27/M07 A3020 RMK AO2 SLP149 T02721067 10272 20094 58005
KDEN 221853Z VRB03KT 10SM FEW100 FEW200 28/M11 A3017 RMK AO2 SLP139 T02831111
KDEN 221953Z 13008KT 10SM FEW120 29/M12 A3014 RMK AO2 SLP131 T02891117
KDEN 222053Z 09004KT 10SM FEW130 29/M12 A3011 RMK AO2 SLP121 T02941117 58024
KDEN 222153Z 10008KT 10SM FEW130 29/M12 A3009 RMK AO2 SLP114 T02941122
KDEN 222253Z 08009KT 10SM CLR 29/M12 A3008 RMK AO2 SLP113 T02941117
KDEN 222353Z 10010KT 10SM FEW130 28/M11 A3007 RMK AO2 SLP114 T02831106 10300 20267 56011
KDEN 230053Z 11009KT 10SM FEW130 23/M07 A3008 RMK AO2 SLP122 T02331072
KDEN 230153Z 14008KT 10SM FEW130 19/M06 A3008 RMK AO2 SLP125 T01891056



Page loaded:  02:42 UTC  |   07:42 PM Pacific  |   08:42 PM Mountain  |   09:42 PM Central  |   10:42 PM Eastern

 

ADVISORIES

FORECASTS

FORECASTS

OBSERVATIONS

USER TOOLS

ABOUT US